createdAt,value
2024-02-02T00:00:27.792Z,13.60
2024-02-02T00:03:30.560Z,13.54
2024-02-02T00:06:33.039Z,13.66
2024-02-02T00:09:35.727Z,13.62
2024-02-02T00:12:38.513Z,13.57
2024-02-02T00:15:40.971Z,13.59
2024-02-02T00:18:43.354Z,13.54
2024-02-02T00:21:45.694Z,13.65
2024-02-02T00:24:49.050Z,13.67
2024-02-02T00:27:51.296Z,13.59
2024-02-02T00:30:53.509Z,13.68
2024-02-02T00:33:55.814Z,13.70
2024-02-02T00:36:58.206Z,13.64
2024-02-02T00:40:00.587Z,13.56
2024-02-02T00:43:03.146Z,13.62
2024-02-02T00:46:05.747Z,13.62
2024-02-02T00:49:07.949Z,13.54
2024-02-02T00:52:10.252Z,13.46
2024-02-02T00:55:12.369Z,13.55
2024-02-02T00:58:14.431Z,13.48
2024-02-02T01:01:16.541Z,13.51
2024-02-02T01:04:18.776Z,13.48
2024-02-02T01:07:21.134Z,13.56
2024-02-02T01:10:23.605Z,13.51
2024-02-02T01:13:25.926Z,13.54
2024-02-02T01:16:28.860Z,13.46
2024-02-02T01:19:32.289Z,13.50
2024-02-02T01:22:34.651Z,13.55
2024-02-02T01:25:36.815Z,13.49
2024-02-02T01:28:39.233Z,13.41
2024-02-02T01:31:41.521Z,13.49
2024-02-02T01:34:43.826Z,13.40
2024-02-02T01:37:46.201Z,13.35
2024-02-02T01:40:48.298Z,13.28
2024-02-02T01:43:50.600Z,13.32
2024-02-02T01:46:52.778Z,13.35
2024-02-02T01:49:55.064Z,13.35
2024-02-02T01:52:57.319Z,13.24
2024-02-02T01:55:59.538Z,13.34
2024-02-02T01:59:04.758Z,13.40
2024-02-02T02:02:07.937Z,13.41
2024-02-02T02:05:11.259Z,13.39
2024-02-02T02:08:13.556Z,13.35
2024-02-02T02:11:16.118Z,13.30
2024-02-02T02:14:18.489Z,13.37
2024-02-02T02:17:21.093Z,13.39
2024-02-02T02:20:26.983Z,13.32
2024-02-02T02:23:29.643Z,13.37
2024-02-02T02:26:32.197Z,13.39
2024-02-02T02:29:34.432Z,13.39
2024-02-02T02:32:36.800Z,13.38
2024-02-02T02:35:39.019Z,13.36
2024-02-02T02:38:41.283Z,13.36
2024-02-02T02:41:43.559Z,13.40
2024-02-02T02:44:45.728Z,13.56
2024-02-02T02:47:48.059Z,13.62
2024-02-02T02:50:50.692Z,13.69
2024-02-02T02:53:52.894Z,13.70
2024-02-02T02:56:55.137Z,13.74
2024-02-02T02:59:57.605Z,13.74
2024-02-02T03:03:00.349Z,13.61
2024-02-02T03:06:02.827Z,13.63
2024-02-02T03:09:06.128Z,13.65
2024-02-02T03:12:08.934Z,13.69
2024-02-02T03:15:12.392Z,13.65
2024-02-02T03:18:15.983Z,13.63
2024-02-02T03:21:18.504Z,13.66
2024-02-02T03:24:21.848Z,13.65
2024-02-02T03:27:24.248Z,13.71
2024-02-02T03:30:28.738Z,13.72
2024-02-02T03:33:31.673Z,13.80
2024-02-02T03:36:34.459Z,13.74
2024-02-02T03:39:37.555Z,13.75
2024-02-02T03:42:39.852Z,13.76
2024-02-02T03:45:42.167Z,13.75
2024-02-02T03:48:44.582Z,13.69
2024-02-02T03:51:47.052Z,13.55
2024-02-02T03:54:49.542Z,13.64
2024-02-02T03:57:51.918Z,13.67
2024-02-02T04:00:54.243Z,13.64
2024-02-02T04:03:57.303Z,13.62
2024-02-02T04:07:00.169Z,13.62
2024-02-02T04:10:02.542Z,13.56
2024-02-02T04:13:06.451Z,13.75
2024-02-02T04:16:08.830Z,13.78
2024-02-02T04:19:16.367Z,13.81
2024-02-02T04:22:18.730Z,13.76
2024-02-02T04:25:21.024Z,13.79
2024-02-02T04:28:23.456Z,13.75
2024-02-02T04:31:25.707Z,13.53
2024-02-02T04:34:28.394Z,13.65
2024-02-02T04:37:31.194Z,13.68
2024-02-02T04:40:34.001Z,13.67
2024-02-02T04:43:36.631Z,13.64
2024-02-02T04:46:38.929Z,13.62
2024-02-02T04:49:41.236Z,13.59
2024-02-02T04:52:46.148Z,13.58
2024-02-02T04:55:48.365Z,13.62
2024-02-02T04:58:53.400Z,13.66
2024-02-02T05:01:55.746Z,13.74
2024-02-02T05:04:57.923Z,13.74
2024-02-02T05:08:00.158Z,13.73
2024-02-02T05:11:02.214Z,13.72
2024-02-02T05:14:04.522Z,13.72
2024-02-02T05:17:06.837Z,13.75
2024-02-02T05:20:09.008Z,13.73
2024-02-02T05:23:12.079Z,13.72
2024-02-02T05:26:14.272Z,13.64
2024-02-02T05:29:16.397Z,13.64
2024-02-02T05:32:18.641Z,13.66
2024-02-02T05:35:20.872Z,13.61
2024-02-02T05:38:23.048Z,13.63
2024-02-02T05:41:25.219Z,13.90
2024-02-02T05:44:27.396Z,14.13
2024-02-02T05:47:29.662Z,14.31
2024-02-02T05:50:32.673Z,14.38
2024-02-02T05:53:34.906Z,14.38
2024-02-02T05:56:37.285Z,14.36
2024-02-02T05:59:39.709Z,14.26
2024-02-02T06:02:43.321Z,14.12
2024-02-02T06:05:45.625Z,14.65
2024-02-02T06:08:48.008Z,15.18
2024-02-02T06:11:50.076Z,15.01
2024-02-02T06:14:52.232Z,14.88
2024-02-02T06:17:54.438Z,14.87
2024-02-02T06:20:56.711Z,14.84
2024-02-02T06:23:59.123Z,14.83
2024-02-02T06:27:01.322Z,14.66
2024-02-02T06:30:05.184Z,14.75
2024-02-02T06:33:08.134Z,14.73
2024-02-02T06:36:10.779Z,14.73
2024-02-02T06:39:13.467Z,14.70
2024-02-02T06:42:16.578Z,14.69
2024-02-02T06:45:18.907Z,14.74
2024-02-02T06:48:22.764Z,14.83
2024-02-02T06:51:25.454Z,15.42
2024-02-02T06:54:27.760Z,15.79
2024-02-02T06:57:33.592Z,15.82
2024-02-02T07:00:35.962Z,15.89
2024-02-02T07:03:38.853Z,16.04
2024-02-02T07:06:42.152Z,16.35
2024-02-02T07:09:57.614Z,16.59
2024-02-02T07:13:01.332Z,16.82
2024-02-02T07:16:04.133Z,17.36
2024-02-02T07:19:31.978Z,17.61
2024-02-02T07:22:42.514Z,17.81
2024-02-02T07:25:44.710Z,17.62
2024-02-02T07:28:46.779Z,17.43
2024-02-02T07:31:49.161Z,17.51
2024-02-02T07:34:55.360Z,17.47
2024-02-02T07:38:05.318Z,17.46
2024-02-02T07:41:13.662Z,17.34
2024-02-02T07:44:16.354Z,17.39
2024-02-02T07:47:18.468Z,17.25
2024-02-02T07:50:20.686Z,17.01
2024-02-02T07:53:24.100Z,16.93
2024-02-02T07:56:27.250Z,16.97
2024-02-02T07:59:29.465Z,17.02
2024-02-02T08:02:31.637Z,17.05
2024-02-02T08:05:38.569Z,16.98
2024-02-02T08:08:41.031Z,16.98
2024-02-02T08:11:43.229Z,16.96
2024-02-02T08:14:45.332Z,17.02
2024-02-02T08:17:47.441Z,16.98
2024-02-02T08:20:49.649Z,16.84
2024-02-02T08:23:51.801Z,16.86
2024-02-02T08:26:54.764Z,16.77
2024-02-02T08:29:57.227Z,16.82
2024-02-02T08:32:59.472Z,16.78
2024-02-02T08:36:01.834Z,16.79
2024-02-02T08:39:04.289Z,16.75
2024-02-02T08:42:15.857Z,16.70
2024-02-02T08:45:44.554Z,16.71
2024-02-02T08:48:48.408Z,17.14
2024-02-02T08:51:52.735Z,17.18
2024-02-02T08:54:55.062Z,16.97
2024-02-02T08:58:03.245Z,16.81
2024-02-02T09:01:08.120Z,16.66
2024-02-02T09:04:34.617Z,16.58
2024-02-02T09:07:37.365Z,16.61
2024-02-02T09:10:41.862Z,16.59
2024-02-02T09:13:45.864Z,16.53
2024-02-02T09:16:50.846Z,16.46
2024-02-02T09:19:56.819Z,16.45
2024-02-02T09:23:00.588Z,16.52
2024-02-02T09:26:12.594Z,16.44
2024-02-02T09:29:15.302Z,16.38
2024-02-02T09:32:17.613Z,16.49
2024-02-02T09:35:55.309Z,16.46
2024-02-02T09:38:58.772Z,16.38
2024-02-02T09:42:01.229Z,16.58
2024-02-02T09:45:28.797Z,16.41
2024-02-02T09:49:02.321Z,16.27
2024-02-02T09:52:39.784Z,16.38
2024-02-02T09:56:11.591Z,16.39
2024-02-02T09:59:23.901Z,16.22
2024-02-02T10:02:31.563Z,16.19
2024-02-02T10:06:04.791Z,16.09
2024-02-02T10:09:23.279Z,16.17
2024-02-02T10:12:49.607Z,16.25
2024-02-02T10:16:31.451Z,16.07
2024-02-02T10:19:45.991Z,16.01
2024-02-02T10:23:09.773Z,16.02
2024-02-02T10:26:29.831Z,15.91
2024-02-02T10:29:44.292Z,15.96
2024-02-02T10:32:55.529Z,15.83
2024-02-02T10:36:00.620Z,15.80
2024-02-02T10:39:24.360Z,15.86
2024-02-02T10:42:47.560Z,15.84
2024-02-02T10:46:07.933Z,16.07
2024-02-02T10:49:35.326Z,16.07
2024-02-02T10:52:59.089Z,16.03
2024-02-02T10:56:26.185Z,15.88
2024-02-02T10:59:34.625Z,15.95
2024-02-02T11:02:53.047Z,15.85
2024-02-02T11:06:11.125Z,15.82
2024-02-02T11:09:13.359Z,15.67
2024-02-02T11:12:24.765Z,15.67
2024-02-02T11:15:48.472Z,15.71
2024-02-02T11:19:22.598Z,15.54
2024-02-02T11:22:55.786Z,15.59
2024-02-02T11:26:08.510Z,15.57
2024-02-02T11:29:24.402Z,15.52
2024-02-02T11:32:45.750Z,15.57
2024-02-02T11:35:59.663Z,15.36
2024-02-02T11:39:01.855Z,15.30
2024-02-02T11:42:05.510Z,15.32
2024-02-02T11:45:19.433Z,15.31
2024-02-02T11:48:35.240Z,15.34
2024-02-02T11:51:38.804Z,15.36
2024-02-02T11:55:22.678Z,15.22
2024-02-02T11:58:26.610Z,15.18
2024-02-02T12:01:35.466Z,15.12
2024-02-02T12:04:43.452Z,15.22
2024-02-02T12:08:04.789Z,15.22
2024-02-02T12:11:11.212Z,14.95
2024-02-02T12:14:39.595Z,15.07
2024-02-02T12:17:41.974Z,15.11
2024-02-02T12:20:45.387Z,15.09
2024-02-02T12:23:48.685Z,15.02
2024-02-02T12:26:51.413Z,15.06
2024-02-02T12:29:53.694Z,15.08
2024-02-02T12:32:58.713Z,14.92
2024-02-02T12:36:07.127Z,15.01
2024-02-02T12:39:12.194Z,15.15
2024-02-02T12:42:14.496Z,15.32
2024-02-02T12:45:17.619Z,15.46
2024-02-02T12:48:21.177Z,15.55
2024-02-02T12:51:26.093Z,15.62
2024-02-02T12:54:28.263Z,15.59
2024-02-02T12:57:30.636Z,15.50
2024-02-02T13:00:33.261Z,15.39
2024-02-02T13:03:41.330Z,15.39
2024-02-02T13:06:47.151Z,15.32
2024-02-02T13:09:52.567Z,15.30
2024-02-02T13:12:54.805Z,15.29
2024-02-02T13:15:57.141Z,15.21
2024-02-02T13:19:00.156Z,15.05
2024-02-02T13:22:03.395Z,15.13
2024-02-02T13:25:11.745Z,15.11
2024-02-02T13:28:14.302Z,15.17
2024-02-02T13:31:20.040Z,15.15
2024-02-02T13:34:23.354Z,15.12
2024-02-02T13:37:38.974Z,15.14
2024-02-02T13:40:42.149Z,15.14
2024-02-02T13:43:45.718Z,15.18
2024-02-02T13:46:48.483Z,15.19
2024-02-02T13:49:57.101Z,15.11
2024-02-02T13:52:59.781Z,15.07
2024-02-02T13:56:11.516Z,15.01
2024-02-02T13:59:20.618Z,14.98
2024-02-02T14:02:25.570Z,14.87
2024-02-02T14:05:27.686Z,14.81
2024-02-02T14:08:40.563Z,14.90
2024-02-02T14:11:42.976Z,14.91
2024-02-02T14:14:45.682Z,14.82
2024-02-02T14:17:48.251Z,14.82
2024-02-02T14:20:50.537Z,14.94
2024-02-02T14:23:52.789Z,14.86
2024-02-02T14:26:57.157Z,14.78
2024-02-02T14:29:59.412Z,14.80
2024-02-02T14:33:13.632Z,14.79
2024-02-02T14:36:23.932Z,14.76
2024-02-02T14:39:27.704Z,14.71
2024-02-02T14:42:30.477Z,14.69
2024-02-02T14:45:34.548Z,14.76
2024-02-02T14:48:38.647Z,14.70
2024-02-02T14:51:42.144Z,14.93
2024-02-02T14:54:46.263Z,15.01
2024-02-02T14:57:49.399Z,15.06
2024-02-02T15:00:53.954Z,15.09
2024-02-02T15:03:56.213Z,15.05
2024-02-02T15:06:59.212Z,15.05
2024-02-02T15:10:01.674Z,15.02
2024-02-02T15:13:05.719Z,15.06
2024-02-02T15:16:10.804Z,15.06
2024-02-02T15:19:13.064Z,15.00
2024-02-02T15:22:15.274Z,15.05
2024-02-02T15:25:17.450Z,15.00
2024-02-02T15:28:19.620Z,15.00
2024-02-02T15:31:21.935Z,14.96
2024-02-02T15:34:24.734Z,14.96
2024-02-02T15:37:27.761Z,15.01
2024-02-02T15:40:29.996Z,14.94
2024-02-02T15:43:32.124Z,15.02
2024-02-02T15:46:34.335Z,15.16
2024-02-02T15:49:36.685Z,15.23
2024-02-02T15:52:40.262Z,15.19
2024-02-02T15:55:42.464Z,15.17
2024-02-02T15:58:45.040Z,15.13
2024-02-02T16:01:47.932Z,15.15
2024-02-02T16:04:57.189Z,15.09
2024-02-02T16:07:59.271Z,15.09
2024-02-02T16:11:01.307Z,15.15
2024-02-02T16:14:03.520Z,15.14
2024-02-02T16:17:07.755Z,14.93
2024-02-02T16:20:11.217Z,15.07
2024-02-02T16:23:13.361Z,15.39
2024-02-02T16:26:15.596Z,15.61
2024-02-02T16:29:17.861Z,15.55
2024-02-02T16:32:19.953Z,15.41
2024-02-02T16:35:25.643Z,15.25
2024-02-02T16:38:28.353Z,15.40
2024-02-02T16:41:30.500Z,15.38
2024-02-02T16:44:32.889Z,15.27
2024-02-02T16:47:34.977Z,15.27
2024-02-02T16:50:38.271Z,15.32
2024-02-02T16:53:43.096Z,15.37
2024-02-02T16:56:45.390Z,15.39
2024-02-02T16:59:48.055Z,15.37
2024-02-02T17:02:52.335Z,15.35
2024-02-02T17:05:54.555Z,15.41
2024-02-02T17:08:57.550Z,15.16
2024-02-02T17:11:59.846Z,15.15
2024-02-02T17:15:01.931Z,15.04
2024-02-02T17:18:04.298Z,14.91
2024-02-02T17:21:09.487Z,15.18
2024-02-02T17:24:11.770Z,15.26
2024-02-02T17:27:13.905Z,15.30
2024-02-02T17:30:18.174Z,15.29
2024-02-02T17:33:21.371Z,15.45
2024-02-02T17:36:23.619Z,15.40
2024-02-02T17:39:25.749Z,15.52
2024-02-02T17:42:27.867Z,15.23
2024-02-02T17:45:29.988Z,15.07
2024-02-02T17:48:33.428Z,14.94
2024-02-02T17:51:35.618Z,14.80
2024-02-02T17:54:37.763Z,14.71
2024-02-02T17:57:40.088Z,14.66
2024-02-02T18:00:42.440Z,14.53
2024-02-02T18:03:44.709Z,14.40
2024-02-02T18:06:46.935Z,14.34
2024-02-02T18:09:49.212Z,14.25
2024-02-02T18:12:52.011Z,14.29
2024-02-02T18:15:54.485Z,14.17
2024-02-02T18:18:56.813Z,14.19
2024-02-02T18:21:58.983Z,14.22
2024-02-02T18:25:01.250Z,14.18
2024-02-02T18:28:03.698Z,14.13
2024-02-02T18:31:05.904Z,14.11
2024-02-02T18:34:08.357Z,14.05
2024-02-02T18:37:10.705Z,14.06
2024-02-02T18:40:13.675Z,14.00
2024-02-02T18:43:15.825Z,14.01
2024-02-02T18:46:27.594Z,13.93
2024-02-02T18:49:33.255Z,13.87
2024-02-02T18:52:36.368Z,14.01
2024-02-02T18:55:38.675Z,13.93
2024-02-02T18:58:46.136Z,13.84
2024-02-02T19:01:49.261Z,13.90
2024-02-02T19:04:52.339Z,13.83
2024-02-02T19:07:54.744Z,13.75
2024-02-02T19:10:57.154Z,13.77
2024-02-02T19:14:00.580Z,13.74
2024-02-02T19:17:02.716Z,13.77
2024-02-02T19:20:05.337Z,13.83
2024-02-02T19:23:07.866Z,13.74
2024-02-02T19:26:10.981Z,13.73
2024-02-02T19:29:13.316Z,13.68
2024-02-02T19:32:16.630Z,13.69
2024-02-02T19:35:18.825Z,13.72
2024-02-02T19:38:20.974Z,13.64
2024-02-02T19:41:27.320Z,13.63
2024-02-02T19:44:29.435Z,13.51
2024-02-02T19:47:31.734Z,13.38
2024-02-02T19:50:33.825Z,13.55
2024-02-02T19:53:36.459Z,13.56
2024-02-02T19:56:38.612Z,13.59
2024-02-02T19:59:41.994Z,13.53
2024-02-02T20:02:48.857Z,13.56
2024-02-02T20:05:51.602Z,13.63
2024-02-02T20:08:53.793Z,13.57
2024-02-02T20:11:56.279Z,13.85
2024-02-02T20:14:58.865Z,14.01
2024-02-02T20:18:03.208Z,14.02
2024-02-02T20:21:05.813Z,14.00
2024-02-02T20:24:08.369Z,13.94
2024-02-02T20:27:10.824Z,14.01
2024-02-02T20:30:14.132Z,13.91
2024-02-02T20:33:16.854Z,13.85
2024-02-02T20:36:21.315Z,13.84
2024-02-02T20:39:23.714Z,13.83
2024-02-02T20:42:26.023Z,13.84
2024-02-02T20:45:28.835Z,13.74
2024-02-02T20:48:31.094Z,13.90
2024-02-02T20:51:33.494Z,13.77
2024-02-02T20:54:35.783Z,14.94
2024-02-02T20:57:38.162Z,14.57
2024-02-02T21:00:40.810Z,14.88
2024-02-02T21:03:43.335Z,15.45
2024-02-02T21:06:45.859Z,16.17
2024-02-02T21:09:48.265Z,16.61
2024-02-02T21:12:50.486Z,17.09
2024-02-02T21:15:54.037Z,17.23
2024-02-02T21:18:57.829Z,17.27
2024-02-02T21:22:02.845Z,17.17
2024-02-02T21:25:06.014Z,16.99
2024-02-02T21:28:08.241Z,16.89
2024-02-02T21:31:10.657Z,16.93
2024-02-02T21:34:13.035Z,16.85
2024-02-02T21:37:15.655Z,16.76
2024-02-02T21:40:18.076Z,16.95
2024-02-02T21:43:20.275Z,16.89
2024-02-02T21:46:22.665Z,16.71
2024-02-02T21:49:24.960Z,16.73
2024-02-02T21:52:27.374Z,16.65
2024-02-02T21:55:29.565Z,16.51
2024-02-02T21:58:32.535Z,16.40
2024-02-02T22:01:39.418Z,16.37
2024-02-02T22:04:41.698Z,16.27
2024-02-02T22:07:43.962Z,16.17
2024-02-02T22:10:46.302Z,16.11
2024-02-02T22:13:49.521Z,16.06
2024-02-02T22:16:51.856Z,15.98
2024-02-02T22:19:54.241Z,15.83
2024-02-02T22:22:56.468Z,15.83
2024-02-02T22:25:59.055Z,15.74
2024-02-02T22:29:02.078Z,15.91
2024-02-02T22:32:04.892Z,15.86
2024-02-02T22:35:07.853Z,15.87
2024-02-02T22:38:10.152Z,15.84
2024-02-02T22:41:32.221Z,15.86
2024-02-02T22:44:36.504Z,15.77
2024-02-02T22:47:39.658Z,15.65
2024-02-02T22:50:41.896Z,15.60
2024-02-02T22:53:44.265Z,15.46
2024-02-02T22:56:46.355Z,15.38
2024-02-02T22:59:53.642Z,15.32
2024-02-02T23:03:01.773Z,15.21
2024-02-02T23:06:05.343Z,15.04
2024-02-02T23:09:07.687Z,15.11
2024-02-02T23:12:10.913Z,14.99
2024-02-02T23:15:13.292Z,14.96
2024-02-02T23:18:15.662Z,14.82
2024-02-02T23:21:17.873Z,14.84
2024-02-02T23:24:20.046Z,14.84
2024-02-02T23:27:22.344Z,14.70
2024-02-02T23:30:24.790Z,14.65
2024-02-02T23:33:27.788Z,14.58
2024-02-02T23:36:30.089Z,14.52
2024-02-02T23:39:32.286Z,14.49
2024-02-02T23:42:34.598Z,14.39
2024-02-02T23:45:36.793Z,14.40
2024-02-02T23:48:39.120Z,14.31
2024-02-02T23:51:41.748Z,14.24
2024-02-02T23:54:44.221Z,14.31
2024-02-02T23:57:46.641Z,14.19
